sensor_id;sensor_type;location;lat;lon;timestamp;temperature;humidity
43089;DHT22;28709;52.030;5.652;2023-05-10T00:00:53;13.10;99.90
43089;DHT22;28709;52.030;5.652;2023-05-10T00:03:18;13.10;99.90
43089;DHT22;28709;52.030;5.652;2023-05-10T00:05:44;13.10;99.90
43089;DHT22;28709;52.030;5.652;2023-05-10T00:08:10;13.10;99.90
43089;DHT22;28709;52.030;5.652;2023-05-10T00:10:35;13.10;99.90
43089;DHT22;28709;52.030;5.652;2023-05-10T00:13:02;13.10;99.90
43089;DHT22;28709;52.030;5.652;2023-05-10T00:15:28;13.00;99.90
43089;DHT22;28709;52.030;5.652;2023-05-10T00:17:56;13.00;99.90
43089;DHT22;28709;52.030;5.652;2023-05-10T00:20:22;13.00;99.90
43089;DHT22;28709;52.030;5.652;2023-05-10T00:22:48;13.00;99.90
43089;DHT22;28709;52.030;5.652;2023-05-10T00:25:13;13.10;99.90
43089;DHT22;28709;52.030;5.652;2023-05-10T00:27:39;13.10;99.90
43089;DHT22;28709;52.030;5.652;2023-05-10T00:30:05;13.10;99.90
43089;DHT22;28709;52.030;5.652;2023-05-10T00:32:31;13.00;99.90
43089;DHT22;28709;52.030;5.652;2023-05-10T00:34:57;13.00;99.90
43089;DHT22;28709;52.030;5.652;2023-05-10T00:37:23;13.10;99.90
43089;DHT22;28709;52.030;5.652;2023-05-10T00:39:48;13.00;99.90
43089;DHT22;28709;52.030;5.652;2023-05-10T00:42:14;13.00;99.90
43089;DHT22;28709;52.030;5.652;2023-05-10T00:44:40;13.00;99.90
43089;DHT22;28709;52.030;5.652;2023-05-10T00:47:05;13.10;99.90
43089;DHT22;28709;52.030;5.652;2023-05-10T00:49:31;13.00;99.90
43089;DHT22;28709;52.030;5.652;2023-05-10T00:51:57;13.00;99.90
43089;DHT22;28709;52.030;5.652;2023-05-10T00:54:23;13.00;99.90
43089;DHT22;28709;52.030;5.652;2023-05-10T00:56:49;13.00;99.90
43089;DHT22;28709;52.030;5.652;2023-05-10T00:59:16;13.00;99.90
43089;DHT22;28709;52.030;5.652;2023-05-10T01:01:44;13.10;99.90
43089;DHT22;28709;52.030;5.652;2023-05-10T01:04:11;13.10;99.90
43089;DHT22;28709;52.030;5.652;2023-05-10T01:06:38;13.10;99.90
43089;DHT22;28709;52.030;5.652;2023-05-10T01:09:04;13.10;99.90
43089;DHT22;28709;52.030;5.652;2023-05-10T01:11:29;13.10;99.90
43089;DHT22;28709;52.030;5.652;2023-05-10T01:13:56;13.10;99.90
43089;DHT22;28709;52.030;5.652;2023-05-10T01:16:23;13.20;99.90
43089;DHT22;28709;52.030;5.652;2023-05-10T01:18:51;13.20;99.90
43089;DHT22;28709;52.030;5.652;2023-05-10T01:27:19;13.20;99.90
43089;DHT22;28709;52.030;5.652;2023-05-10T01:32:33;13.30;99.90
43089;DHT22;28709;52.030;5.652;2023-05-10T01:35:06;13.30;99.90
43089;DHT22;28709;52.030;5.652;2023-05-10T01:38:06;13.30;99.90
43089;DHT22;28709;52.030;5.652;2023-05-10T01:40:39;13.30;99.90
43089;DHT22;28709;52.030;5.652;2023-05-10T01:43:13;13.30;99.90
43089;DHT22;28709;52.030;5.652;2023-05-10T01:46:21;13.30;99.90
43089;DHT22;28709;52.030;5.652;2023-05-10T01:48:48;13.30;99.90
43089;DHT22;28709;52.030;5.652;2023-05-10T01:51:22;13.30;99.90
43089;DHT22;28709;52.030;5.652;2023-05-10T01:53:48;13.30;99.90
43089;DHT22;28709;52.030;5.652;2023-05-10T01:56:17;13.30;99.90
43089;DHT22;28709;52.030;5.652;2023-05-10T01:58:46;13.30;99.90
43089;DHT22;28709;52.030;5.652;2023-05-10T02:01:13;13.30;99.90
43089;DHT22;28709;52.030;5.652;2023-05-10T02:03:40;13.30;99.90
43089;DHT22;28709;52.030;5.652;2023-05-10T02:06:09;13.30;99.90
43089;DHT22;28709;52.030;5.652;2023-05-10T02:08:36;13.30;99.90
43089;DHT22;28709;52.030;5.652;2023-05-10T02:11:03;13.30;99.90
43089;DHT22;28709;52.030;5.652;2023-05-10T02:13:32;13.30;99.90
43089;DHT22;28709;52.030;5.652;2023-05-10T02:15:59;13.30;99.90
43089;DHT22;28709;52.030;5.652;2023-05-10T02:18:26;13.30;99.90
43089;DHT22;28709;52.030;5.652;2023-05-10T02:20:54;13.30;99.90
43089;DHT22;28709;52.030;5.652;2023-05-10T02:23:21;13.30;99.90
43089;DHT22;28709;52.030;5.652;2023-05-10T02:25:49;13.30;99.90
43089;DHT22;28709;52.030;5.652;2023-05-10T02:28:17;13.30;99.90
43089;DHT22;28709;52.030;5.652;2023-05-10T02:30:43;13.20;99.90
43089;DHT22;28709;52.030;5.652;2023-05-10T02:33:10;13.30;99.90
43089;DHT22;28709;52.030;5.652;2023-05-10T02:35:37;13.30;99.90
43089;DHT22;28709;52.030;5.652;2023-05-10T02:38:04;13.20;99.90
43089;DHT22;28709;52.030;5.652;2023-05-10T02:40:31;13.20;99.90
43089;DHT22;28709;52.030;5.652;2023-05-10T02:42:59;13.20;99.90
43089;DHT22;28709;52.030;5.652;2023-05-10T02:45:29;13.20;99.90
43089;DHT22;28709;52.030;5.652;2023-05-10T02:47:56;13.20;99.90
43089;DHT22;28709;52.030;5.652;2023-05-10T02:50:22;13.20;99.90
43089;DHT22;28709;52.030;5.652;2023-05-10T02:52:51;13.20;99.90
43089;DHT22;28709;52.030;5.652;2023-05-10T02:55:22;13.10;99.90
43089;DHT22;28709;52.030;5.652;2023-05-10T02:57:59;13.10;99.90
43089;DHT22;28709;52.030;5.652;2023-05-10T03:00:25;13.10;99.90
43089;DHT22;28709;52.030;5.652;2023-05-10T03:02:51;13.10;99.90
43089;DHT22;28709;52.030;5.652;2023-05-10T03:05:17;13.00;99.90
43089;DHT22;28709;52.030;5.652;2023-05-10T03:07:43;13.00;99.90
43089;DHT22;28709;52.030;5.652;2023-05-10T03:10:10;13.00;99.90
43089;DHT22;28709;52.030;5.652;2023-05-10T03:18:23;12.90;99.90
43089;DHT22;28709;52.030;5.652;2023-05-10T03:20:52;12.90;99.90
43089;DHT22;28709;52.030;5.652;2023-05-10T03:23:41;13.00;99.90
43089;DHT22;28709;52.030;5.652;2023-05-10T03:26:07;13.00;99.90
43089;DHT22;28709;52.030;5.652;2023-05-10T03:28:34;13.00;99.90
43089;DHT22;28709;52.030;5.652;2023-05-10T03:31:00;13.00;99.90
43089;DHT22;28709;52.030;5.652;2023-05-10T03:33:27;13.00;99.90
43089;DHT22;28709;52.030;5.652;2023-05-10T03:35:53;13.00;99.90
43089;DHT22;28709;52.030;5.652;2023-05-10T03:38:19;12.90;99.90
43089;DHT22;28709;52.030;5.652;2023-05-10T03:40:44;12.90;99.90
43089;DHT22;28709;52.030;5.652;2023-05-10T03:43:10;12.80;99.90
43089;DHT22;28709;52.030;5.652;2023-05-10T03:45:36;12.70;99.90
43089;DHT22;28709;52.030;5.652;2023-05-10T03:48:01;12.70;99.90
43089;DHT22;28709;52.030;5.652;2023-05-10T03:50:27;12.70;99.90
43089;DHT22;28709;52.030;5.652;2023-05-10T03:52:53;12.70;99.90
43089;DHT22;28709;52.030;5.652;2023-05-10T03:55:18;12.70;99.90
43089;DHT22;28709;52.030;5.652;2023-05-10T03:57:44;12.70;99.90
43089;DHT22;28709;52.030;5.652;2023-05-10T04:00:10;12.70;99.90
43089;DHT22;28709;52.030;5.652;2023-05-10T04:02:36;12.60;99.90
43089;DHT22;28709;52.030;5.652;2023-05-10T04:05:02;12.60;99.90
43089;DHT22;28709;52.030;5.652;2023-05-10T04:07:27;12.60;99.90
43089;DHT22;28709;52.030;5.652;2023-05-10T04:09:53;12.60;99.90
43089;DHT22;28709;52.030;5.652;2023-05-10T04:12:19;12.60;99.90
43089;DHT22;28709;52.030;5.652;2023-05-10T04:14:45;12.60;99.90
43089;DHT22;28709;52.030;5.652;2023-05-10T04:17:11;12.60;99.90
43089;DHT22;28709;52.030;5.652;2023-05-10T04:19:36;12.60;99.90
43089;DHT22;28709;52.030;5.652;2023-05-10T04:22:02;12.60;99.90
43089;DHT22;28709;52.030;5.652;2023-05-10T04:24:28;12.60;99.90
43089;DHT22;28709;52.030;5.652;2023-05-10T04:26:54;12.60;99.90
43089;DHT22;28709;52.030;5.652;2023-05-10T04:29:20;12.70;99.90
43089;DHT22;28709;52.030;5.652;2023-05-10T04:31:46;12.70;99.90
43089;DHT22;28709;52.030;5.652;2023-05-10T04:34:11;12.60;99.90
43089;DHT22;28709;52.030;5.652;2023-05-10T04:36:37;12.60;99.90
43089;DHT22;28709;52.030;5.652;2023-05-10T04:39:03;12.60;99.90
43089;DHT22;28709;52.030;5.652;2023-05-10T04:41:29;12.60;99.90
43089;DHT22;28709;52.030;5.652;2023-05-10T04:43:55;12.60;99.90
43089;DHT22;28709;52.030;5.652;2023-05-10T04:46:21;12.60;99.90
43089;DHT22;28709;52.030;5.652;2023-05-10T04:48:47;12.60;99.90
43089;DHT22;28709;52.030;5.652;2023-05-10T04:51:12;12.60;99.90
43089;DHT22;28709;52.030;5.652;2023-05-10T04:53:38;12.60;99.90
43089;DHT22;28709;52.030;5.652;2023-05-10T04:56:04;12.60;99.90
43089;DHT22;28709;52.030;5.652;2023-05-10T04:58:30;12.60;99.90
43089;DHT22;28709;52.030;5.652;2023-05-10T05:00:56;12.60;99.90
43089;DHT22;28709;52.030;5.652;2023-05-10T05:03:22;12.60;99.90
43089;DHT22;28709;52.030;5.652;2023-05-10T05:05:48;12.60;99.90
43089;DHT22;28709;52.030;5.652;2023-05-10T05:08:13;12.70;99.90
43089;DHT22;28709;52.030;5.652;2023-05-10T05:10:39;12.70;99.90
43089;DHT22;28709;52.030;5.652;2023-05-10T05:13:05;12.70;99.90
43089;DHT22;28709;52.030;5.652;2023-05-10T05:15:31;12.70;99.90
43089;DHT22;28709;52.030;5.652;2023-05-10T05:17:56;12.70;99.90
43089;DHT22;28709;52.030;5.652;2023-05-10T05:20:22;12.80;99.90
43089;DHT22;28709;52.030;5.652;2023-05-10T05:22:48;12.80;99.90
43089;DHT22;28709;52.030;5.652;2023-05-10T05:25:14;12.80;99.90
43089;DHT22;28709;52.030;5.652;2023-05-10T05:27:41;12.80;99.90
43089;DHT22;28709;52.030;5.652;2023-05-10T05:30:07;12.90;99.90
43089;DHT22;28709;52.030;5.652;2023-05-10T05:32:33;12.90;99.90
43089;DHT22;28709;52.030;5.652;2023-05-10T05:34:59;13.00;99.90
43089;DHT22;28709;52.030;5.652;2023-05-10T05:37:25;13.00;99.90
43089;DHT22;28709;52.030;5.652;2023-05-10T05:39:50;13.00;99.90
43089;DHT22;28709;52.030;5.652;2023-05-10T05:42:16;13.00;99.90
43089;DHT22;28709;52.030;5.652;2023-05-10T05:44:44;13.00;99.90
43089;DHT22;28709;52.030;5.652;2023-05-10T05:47:10;13.00;99.90
43089;DHT22;28709;52.030;5.652;2023-05-10T05:49:36;13.00;99.90
43089;DHT22;28709;52.030;5.652;2023-05-10T05:52:03;13.10;99.90
43089;DHT22;28709;52.030;5.652;2023-05-10T05:54:29;13.10;99.90
43089;DHT22;28709;52.030;5.652;2023-05-10T05:56:56;13.10;99.90
43089;DHT22;28709;52.030;5.652;2023-05-10T05:59:22;13.10;99.90
43089;DHT22;28709;52.030;5.652;2023-05-10T06:01:47;13.10;99.90
43089;DHT22;28709;52.030;5.652;2023-05-10T06:04:13;13.10;99.90
43089;DHT22;28709;52.030;5.652;2023-05-10T06:06:40;13.10;99.90
43089;DHT22;28709;52.030;5.652;2023-05-10T06:09:05;13.10;99.90
43089;DHT22;28709;52.030;5.652;2023-05-10T06:11:31;13.10;99.90
43089;DHT22;28709;52.030;5.652;2023-05-10T06:14:00;13.10;99.90
43089;DHT22;28709;52.030;5.652;2023-05-10T06:16:25;13.10;99.90
43089;DHT22;28709;52.030;5.652;2023-05-10T06:18:51;13.10;99.90
43089;DHT22;28709;52.030;5.652;2023-05-10T06:21:17;13.10;99.90
43089;DHT22;28709;52.030;5.652;2023-05-10T06:23:43;13.10;99.90
43089;DHT22;28709;52.030;5.652;2023-05-10T06:26:09;13.20;99.90
43089;DHT22;28709;52.030;5.652;2023-05-10T06:28:35;13.20;99.90
43089;DHT22;28709;52.030;5.652;2023-05-10T06:31:00;13.30;99.90
43089;DHT22;28709;52.030;5.652;2023-05-10T06:33:26;13.30;99.90
43089;DHT22;28709;52.030;5.652;2023-05-10T06:35:52;13.40;99.90
43089;DHT22;28709;52.030;5.652;2023-05-10T06:38:18;13.40;99.90
43089;DHT22;28709;52.030;5.652;2023-05-10T06:40:44;13.30;99.90
43089;DHT22;28709;52.030;5.652;2023-05-10T06:43:10;13.20;99.90
43089;DHT22;28709;52.030;5.652;2023-05-10T06:45:35;13.20;99.90
43089;DHT22;28709;52.030;5.652;2023-05-10T06:48:01;13.10;99.90
43089;DHT22;28709;52.030;5.652;2023-05-10T06:50:27;13.10;99.90
43089;DHT22;28709;52.030;5.652;2023-05-10T06:52:52;13.20;99.90
43089;DHT22;28709;52.030;5.652;2023-05-10T06:55:18;13.20;99.90
43089;DHT22;28709;52.030;5.652;2023-05-10T06:57:44;13.20;99.90
43089;DHT22;28709;52.030;5.652;2023-05-10T07:00:10;13.20;99.90
43089;DHT22;28709;52.030;5.652;2023-05-10T07:02:36;13.30;99.90
43089;DHT22;28709;52.030;5.652;2023-05-10T07:05:02;13.30;99.90
43089;DHT22;28709;52.030;5.652;2023-05-10T07:07:27;13.30;99.90
43089;DHT22;28709;52.030;5.652;2023-05-10T07:09:54;13.30;99.90
43089;DHT22;28709;52.030;5.652;2023-05-10T07:12:21;13.30;99.90
43089;DHT22;28709;52.030;5.652;2023-05-10T07:14:47;13.30;99.90
43089;DHT22;28709;52.030;5.652;2023-05-10T07:17:13;13.30;99.90
43089;DHT22;28709;52.030;5.652;2023-05-10T07:19:38;13.30;99.90
43089;DHT22;28709;52.030;5.652;2023-05-10T07:22:04;13.30;99.90
43089;DHT22;28709;52.030;5.652;2023-05-10T07:24:30;13.30;99.90
43089;DHT22;28709;52.030;5.652;2023-05-10T07:26:56;13.40;99.90
43089;DHT22;28709;52.030;5.652;2023-05-10T07:29:22;13.40;99.90
43089;DHT22;28709;52.030;5.652;2023-05-10T07:31:47;13.50;99.90
43089;DHT22;28709;52.030;5.652;2023-05-10T07:34:13;13.60;99.90
43089;DHT22;28709;52.030;5.652;2023-05-10T07:36:39;13.80;99.90
43089;DHT22;28709;52.030;5.652;2023-05-10T07:39:04;13.80;99.90
43089;DHT22;28709;52.030;5.652;2023-05-10T07:41:30;13.90;99.90
43089;DHT22;28709;52.030;5.652;2023-05-10T07:43:56;13.90;99.90
43089;DHT22;28709;52.030;5.652;2023-05-10T07:46:21;13.90;99.90
43089;DHT22;28709;52.030;5.652;2023-05-10T07:48:47;13.90;99.90
43089;DHT22;28709;52.030;5.652;2023-05-10T07:51:13;13.90;99.90
43089;DHT22;28709;52.030;5.652;2023-05-10T07:53:39;13.80;99.90
43089;DHT22;28709;52.030;5.652;2023-05-10T07:56:39;13.80;99.90
43089;DHT22;28709;52.030;5.652;2023-05-10T07:59:10;13.80;99.90
43089;DHT22;28709;52.030;5.652;2023-05-10T08:01:36;13.70;99.90
43089;DHT22;28709;52.030;5.652;2023-05-10T08:04:01;13.70;99.90
43089;DHT22;28709;52.030;5.652;2023-05-10T08:06:28;13.70;99.90
43089;DHT22;28709;52.030;5.652;2023-05-10T08:08:55;13.60;99.90
43089;DHT22;28709;52.030;5.652;2023-05-10T08:11:21;13.60;99.90
43089;DHT22;28709;52.030;5.652;2023-05-10T08:13:49;13.60;99.90
43089;DHT22;28709;52.030;5.652;2023-05-10T08:16:15;13.50;99.90
43089;DHT22;28709;52.030;5.652;2023-05-10T08:18:40;13.40;99.90
43089;DHT22;28709;52.030;5.652;2023-05-10T08:21:06;13.40;99.90
43089;DHT22;28709;52.030;5.652;2023-05-10T08:23:32;13.30;99.90
43089;DHT22;28709;52.030;5.652;2023-05-10T08:25:59;13.30;99.90
43089;DHT22;28709;52.030;5.652;2023-05-10T08:28:24;13.40;99.90
43089;DHT22;28709;52.030;5.652;2023-05-10T08:30:50;13.40;99.90
43089;DHT22;28709;52.030;5.652;2023-05-10T08:33:17;13.50;99.90
43089;DHT22;28709;52.030;5.652;2023-05-10T08:35:43;13.60;99.90
43089;DHT22;28709;52.030;5.652;2023-05-10T08:38:09;13.70;99.90
43089;DHT22;28709;52.030;5.652;2023-05-10T08:40:36;13.80;99.90
43089;DHT22;28709;52.030;5.652;2023-05-10T08:43:06;13.80;99.90
43089;DHT22;28709;52.030;5.652;2023-05-10T08:45:38;13.90;99.90
43089;DHT22;28709;52.030;5.652;2023-05-10T08:48:06;14.00;99.90
43089;DHT22;28709;52.030;5.652;2023-05-10T08:50:37;14.10;99.90
43089;DHT22;28709;52.030;5.652;2023-05-10T08:53:09;14.30;99.90
43089;DHT22;28709;52.030;5.652;2023-05-10T08:55:36;14.40;99.90
43089;DHT22;28709;52.030;5.652;2023-05-10T08:58:06;14.50;99.90
43089;DHT22;28709;52.030;5.652;2023-05-10T09:00:32;14.60;99.90
43089;DHT22;28709;52.030;5.652;2023-05-10T09:02:59;14.60;99.90
43089;DHT22;28709;52.030;5.652;2023-05-10T09:05:25;14.50;99.90
43089;DHT22;28709;52.030;5.652;2023-05-10T09:07:51;14.50;99.90
43089;DHT22;28709;52.030;5.652;2023-05-10T09:10:16;14.60;99.90
43089;DHT22;28709;52.030;5.652;2023-05-10T09:12:44;14.50;99.90
43089;DHT22;28709;52.030;5.652;2023-05-10T09:15:11;14.50;99.90
43089;DHT22;28709;52.030;5.652;2023-05-10T09:17:38;14.60;99.90
43089;DHT22;28709;52.030;5.652;2023-05-10T09:20:06;14.60;99.90
43089;DHT22;28709;52.030;5.652;2023-05-10T09:22:32;14.70;99.90
43089;DHT22;28709;52.030;5.652;2023-05-10T09:27:34;14.70;99.90
43089;DHT22;28709;52.030;5.652;2023-05-10T09:29:59;14.60;99.90
43089;DHT22;28709;52.030;5.652;2023-05-10T09:32:47;14.60;99.90
43089;DHT22;28709;52.030;5.652;2023-05-10T09:35:15;14.70;99.90
43089;DHT22;28709;52.030;5.652;2023-05-10T09:37:43;14.70;99.90
43089;DHT22;28709;52.030;5.652;2023-05-10T09:40:20;14.70;99.90
43089;DHT22;28709;52.030;5.652;2023-05-10T09:42:57;14.60;99.90
43089;DHT22;28709;52.030;5.652;2023-05-10T09:45:28;14.60;99.90
43089;DHT22;28709;52.030;5.652;2023-05-10T09:47:55;14.60;99.90
43089;DHT22;28709;52.030;5.652;2023-05-10T09:50:21;14.70;99.90
43089;DHT22;28709;52.030;5.652;2023-05-10T09:53:01;14.70;99.90
43089;DHT22;28709;52.030;5.652;2023-05-10T09:55:42;14.80;99.90
43089;DHT22;28709;52.030;5.652;2023-05-10T09:58:12;14.90;99.90
43089;DHT22;28709;52.030;5.652;2023-05-10T10:00:40;15.00;99.90
43089;DHT22;28709;52.030;5.652;2023-05-10T10:03:07;15.20;99.90
43089;DHT22;28709;52.030;5.652;2023-05-10T10:05:40;15.50;99.90
43089;DHT22;28709;52.030;5.652;2023-05-10T10:08:08;15.80;99.90
43089;DHT22;28709;52.030;5.652;2023-05-10T10:10:33;16.00;99.90
43089;DHT22;28709;52.030;5.652;2023-05-10T10:12:59;16.10;99.90
43089;DHT22;28709;52.030;5.652;2023-05-10T10:15:32;16.10;99.90
43089;DHT22;28709;52.030;5.652;2023-05-10T10:17:59;16.20;99.90
43089;DHT22;28709;52.030;5.652;2023-05-10T10:20:26;16.20;99.90
43089;DHT22;28709;52.030;5.652;2023-05-10T10:22:52;16.30;99.90
43089;DHT22;28709;52.030;5.652;2023-05-10T10:25:19;16.30;99.90
43089;DHT22;28709;52.030;5.652;2023-05-10T10:35:46;16.70;99.90
43089;DHT22;28709;52.030;5.652;2023-05-10T10:38:12;16.80;99.90
43089;DHT22;28709;52.030;5.652;2023-05-10T10:40:39;16.80;99.90
43089;DHT22;28709;52.030;5.652;2023-05-10T10:43:23;16.80;99.90
43089;DHT22;28709;52.030;5.652;2023-05-10T10:48:33;16.90;99.90
43089;DHT22;28709;52.030;5.652;2023-05-10T10:51:00;17.00;99.90
43089;DHT22;28709;52.030;5.652;2023-05-10T10:53:27;16.90;99.90
43089;DHT22;28709;52.030;5.652;2023-05-10T10:56:06;16.90;99.90
43089;DHT22;28709;52.030;5.652;2023-05-10T10:58:37;17.00;99.90
43089;DHT22;28709;52.030;5.652;2023-05-10T11:01:14;17.10;99.90
43089;DHT22;28709;52.030;5.652;2023-05-10T11:03:41;17.20;99.90
43089;DHT22;28709;52.030;5.652;2023-05-10T11:06:06;17.20;99.90
43089;DHT22;28709;52.030;5.652;2023-05-10T11:08:41;17.20;99.90
43089;DHT22;28709;52.030;5.652;2023-05-10T11:11:08;17.20;99.90
43089;DHT22;28709;52.030;5.652;2023-05-10T11:13:45;17.30;99.90
43089;DHT22;28709;52.030;5.652;2023-05-10T11:16:21;17.30;99.90
43089;DHT22;28709;52.030;5.652;2023-05-10T11:19:07;17.30;99.90
43089;DHT22;28709;52.030;5.652;2023-05-10T11:21:34;17.30;99.90
43089;DHT22;28709;52.030;5.652;2023-05-10T11:24:01;17.30;99.90
43089;DHT22;28709;52.030;5.652;2023-05-10T11:26:33;17.30;99.90
43089;DHT22;28709;52.030;5.652;2023-05-10T11:28:59;17.20;99.90
43089;DHT22;28709;52.030;5.652;2023-05-10T11:31:28;17.20;99.90
43089;DHT22;28709;52.030;5.652;2023-05-10T11:33:56;17.20;99.90
43089;DHT22;28709;52.030;5.652;2023-05-10T11:36:24;17.30;99.90
43089;DHT22;28709;52.030;5.652;2023-05-10T11:38:51;17.40;99.90
43089;DHT22;28709;52.030;5.652;2023-05-10T11:41:18;17.50;99.90
43089;DHT22;28709;52.030;5.652;2023-05-10T11:43:46;17.60;99.90
43089;DHT22;28709;52.030;5.652;2023-05-10T11:46:14;17.70;99.90
43089;DHT22;28709;52.030;5.652;2023-05-10T11:48:42;17.80;99.90
43089;DHT22;28709;52.030;5.652;2023-05-10T11:51:08;17.90;99.90
43089;DHT22;28709;52.030;5.652;2023-05-10T11:53:34;17.90;99.90
43089;DHT22;28709;52.030;5.652;2023-05-10T11:56:10;18.10;99.90
43089;DHT22;28709;52.030;5.652;2023-05-10T11:58:37;18.20;99.90
43089;DHT22;28709;52.030;5.652;2023-05-10T12:01:05;18.30;99.90
43089;DHT22;28709;52.030;5.652;2023-05-10T12:03:32;18.50;99.90
43089;DHT22;28709;52.030;5.652;2023-05-10T12:05:59;18.50;99.90
43089;DHT22;28709;52.030;5.652;2023-05-10T12:08:26;18.60;99.90
43089;DHT22;28709;52.030;5.652;2023-05-10T12:11:07;18.70;99.90
43089;DHT22;28709;52.030;5.652;2023-05-10T12:13:38;18.60;99.90
43089;DHT22;28709;52.030;5.652;2023-05-10T12:16:17;18.70;99.90
43089;DHT22;28709;52.030;5.652;2023-05-10T12:18:44;18.80;99.90
43089;DHT22;28709;52.030;5.652;2023-05-10T12:21:11;18.90;99.90
43089;DHT22;28709;52.030;5.652;2023-05-10T12:23:38;19.00;99.90
43089;DHT22;28709;52.030;5.652;2023-05-10T12:26:04;19.10;99.90
43089;DHT22;28709;52.030;5.652;2023-05-10T12:28:31;19.40;99.90
43089;DHT22;28709;52.030;5.652;2023-05-10T12:30:58;19.60;99.90
43089;DHT22;28709;52.030;5.652;2023-05-10T12:33:24;19.70;99.90
43089;DHT22;28709;52.030;5.652;2023-05-10T12:35:52;19.70;99.90
43089;DHT22;28709;52.030;5.652;2023-05-10T12:38:29;19.60;99.90
43089;DHT22;28709;52.030;5.652;2023-05-10T12:41:06;19.90;99.90
43089;DHT22;28709;52.030;5.652;2023-05-10T12:43:33;20.20;99.90
43089;DHT22;28709;52.030;5.652;2023-05-10T12:46:07;20.30;99.90
43089;DHT22;28709;52.030;5.652;2023-05-10T12:48:33;20.60;99.90
43089;DHT22;28709;52.030;5.652;2023-05-10T12:51:00;20.90;99.90
43089;DHT22;28709;52.030;5.652;2023-05-10T12:53:26;21.00;99.90
43089;DHT22;28709;52.030;5.652;2023-05-10T12:55:51;20.80;99.90
43089;DHT22;28709;52.030;5.652;2023-05-10T12:58:17;20.50;99.90
43089;DHT22;28709;52.030;5.652;2023-05-10T13:00:42;20.20;99.90
43089;DHT22;28709;52.030;5.652;2023-05-10T13:03:09;20.00;99.90
43089;DHT22;28709;52.030;5.652;2023-05-10T13:05:35;19.70;99.90
43089;DHT22;28709;52.030;5.652;2023-05-10T13:08:01;19.50;99.90
43089;DHT22;28709;52.030;5.652;2023-05-10T13:10:31;19.30;99.90
43089;DHT22;28709;52.030;5.652;2023-05-10T13:12:57;19.10;99.90
43089;DHT22;28709;52.030;5.652;2023-05-10T13:15:23;18.90;99.90
43089;DHT22;28709;52.030;5.652;2023-05-10T13:17:49;18.60;99.90
43089;DHT22;28709;52.030;5.652;2023-05-10T13:20:15;18.40;99.90
43089;DHT22;28709;52.030;5.652;2023-05-10T13:22:42;18.10;99.90
43089;DHT22;28709;52.030;5.652;2023-05-10T13:25:09;17.80;99.90
43089;DHT22;28709;52.030;5.652;2023-05-10T13:27:34;17.40;99.90
43089;DHT22;28709;52.030;5.652;2023-05-10T13:30:00;17.10;99.90
43089;DHT22;28709;52.030;5.652;2023-05-10T13:32:26;16.80;99.90
43089;DHT22;28709;52.030;5.652;2023-05-10T13:34:52;16.40;99.90
43089;DHT22;28709;52.030;5.652;2023-05-10T13:37:18;16.20;99.90
43089;DHT22;28709;52.030;5.652;2023-05-10T13:39:43;16.00;99.90
43089;DHT22;28709;52.030;5.652;2023-05-10T13:42:09;15.80;99.90
43089;DHT22;28709;52.030;5.652;2023-05-10T13:44:34;15.80;99.90
43089;DHT22;28709;52.030;5.652;2023-05-10T13:47:01;15.60;99.90
43089;DHT22;28709;52.030;5.652;2023-05-10T13:49:27;15.50;99.90
43089;DHT22;28709;52.030;5.652;2023-05-10T13:51:52;15.40;99.90
43089;DHT22;28709;52.030;5.652;2023-05-10T13:54:18;15.30;99.90
43089;DHT22;28709;52.030;5.652;2023-05-10T13:56:47;15.20;99.90
43089;DHT22;28709;52.030;5.652;2023-05-10T13:59:14;15.20;99.90
43089;DHT22;28709;52.030;5.652;2023-05-10T14:01:40;15.10;99.90
43089;DHT22;28709;52.030;5.652;2023-05-10T14:04:06;15.10;99.90
43089;DHT22;28709;52.030;5.652;2023-05-10T14:06:32;15.10;99.90
43089;DHT22;28709;52.030;5.652;2023-05-10T14:08:59;15.10;99.90
43089;DHT22;28709;52.030;5.652;2023-05-10T14:11:24;15.00;99.90
43089;DHT22;28709;52.030;5.652;2023-05-10T14:13:50;15.10;99.90
43089;DHT22;28709;52.030;5.652;2023-05-10T14:16:15;15.10;99.90
43089;DHT22;28709;52.030;5.652;2023-05-10T14:18:41;15.10;99.90
43089;DHT22;28709;52.030;5.652;2023-05-10T14:21:07;15.10;99.90
43089;DHT22;28709;52.030;5.652;2023-05-10T14:23:32;15.10;99.90
43089;DHT22;28709;52.030;5.652;2023-05-10T14:25:58;14.90;99.90
43089;DHT22;28709;52.030;5.652;2023-05-10T14:28:24;14.80;99.90
43089;DHT22;28709;52.030;5.652;2023-05-10T14:30:50;14.60;99.90
43089;DHT22;28709;52.030;5.652;2023-05-10T14:33:16;14.40;99.90
43089;DHT22;28709;52.030;5.652;2023-05-10T14:35:42;14.10;99.90
43089;DHT22;28709;52.030;5.652;2023-05-10T14:38:08;14.00;99.90
43089;DHT22;28709;52.030;5.652;2023-05-10T14:40:33;13.80;99.90
43089;DHT22;28709;52.030;5.652;2023-05-10T14:43:00;13.80;99.90
43089;DHT22;28709;52.030;5.652;2023-05-10T14:45:25;13.70;99.90
43089;DHT22;28709;52.030;5.652;2023-05-10T14:47:51;13.60;99.90
43089;DHT22;28709;52.030;5.652;2023-05-10T14:50:16;13.70;99.90
43089;DHT22;28709;52.030;5.652;2023-05-10T14:52:43;13.80;99.90
43089;DHT22;28709;52.030;5.652;2023-05-10T14:55:12;13.80;99.90
43089;DHT22;28709;52.030;5.652;2023-05-10T14:57:37;13.80;99.90
43089;DHT22;28709;52.030;5.652;2023-05-10T15:00:04;13.90;99.90
43089;DHT22;28709;52.030;5.652;2023-05-10T15:02:30;14.00;99.90
43089;DHT22;28709;52.030;5.652;2023-05-10T15:04:56;14.10;99.90
43089;DHT22;28709;52.030;5.652;2023-05-10T15:07:23;14.10;99.90
43089;DHT22;28709;52.030;5.652;2023-05-10T15:09:49;14.20;99.90
43089;DHT22;28709;52.030;5.652;2023-05-10T15:12:15;14.20;99.90
43089;DHT22;28709;52.030;5.652;2023-05-10T15:14:41;14.10;99.90
43089;DHT22;28709;52.030;5.652;2023-05-10T15:17:07;14.10;99.90
43089;DHT22;28709;52.030;5.652;2023-05-10T15:19:33;14.10;99.90
43089;DHT22;28709;52.030;5.652;2023-05-10T15:21:59;14.10;99.90
43089;DHT22;28709;52.030;5.652;2023-05-10T15:24:25;14.30;99.90
43089;DHT22;28709;52.030;5.652;2023-05-10T15:26:50;14.30;99.90
43089;DHT22;28709;52.030;5.652;2023-05-10T15:29:16;14.50;99.90
43089;DHT22;28709;52.030;5.652;2023-05-10T15:31:50;14.60;99.90
43089;DHT22;28709;52.030;5.652;2023-05-10T15:34:16;14.40;99.90
43089;DHT22;28709;52.030;5.652;2023-05-10T15:36:43;14.30;99.90
43089;DHT22;28709;52.030;5.652;2023-05-10T15:39:10;14.20;99.90
43089;DHT22;28709;52.030;5.652;2023-05-10T15:41:36;14.20;99.90
43089;DHT22;28709;52.030;5.652;2023-05-10T15:44:02;14.30;99.90
43089;DHT22;28709;52.030;5.652;2023-05-10T15:46:28;14.50;99.90
43089;DHT22;28709;52.030;5.652;2023-05-10T15:48:54;14.60;99.90
43089;DHT22;28709;52.030;5.652;2023-05-10T15:51:20;14.70;99.90
43089;DHT22;28709;52.030;5.652;2023-05-10T15:53:46;14.80;99.90
43089;DHT22;28709;52.030;5.652;2023-05-10T15:56:12;14.80;99.90
43089;DHT22;28709;52.030;5.652;2023-05-10T15:58:38;14.90;99.90